Time;durP1;ratioP1;P1;durP2;ratioP2;P2;SDS_P1;SDS_P2;PMS_P1;PMS_P2;Temp;Humidity;BMP_temperature;BMP_pressure;BME280_temperature;BME280_humidity;BME280_pressure;Samples;Min_cycle;Max_cycle;Signal;HPM_P1;HPM_P2
2020/12/24 00:00:39;;;;;;;15.40;9.10;;;-6.60;87.30;;;;;;5036680;28;20025;-90
2020/12/24 00:03:05;;;;;;;15.50;8.55;;;-6.80;87.10;;;;;;5028993;28;20128;-89
2020/12/24 00:05:31;;;;;;;26.10;11.50;;;-6.80;87.60;;;;;;5039421;28;20069;-88
2020/12/24 00:07:57;;;;;;;17.90;9.68;;;-6.80;87.60;;;;;;5030564;28;20021;-88
2020/12/24 00:10:23;;;;;;;19.13;9.68;;;-6.80;87.80;;;;;;5050570;28;20018;-88
2020/12/24 00:12:49;;;;;;;17.65;8.70;;;-6.80;87.80;;;;;;5037954;28;20028;-88
2020/12/24 00:15:16;;;;;;;9.85;6.47;;;-6.80;87.80;;;;;;5057866;28;20433;-86
2020/12/24 00:17:42;;;;;;;;;;;-6.80;87.70;;;;;;5070829;28;20049;-86
2020/12/24 00:20:08;;;;;;;17.25;9.48;;;-6.80;87.40;;;;;;5060294;28;19893;-86
2020/12/24 00:22:33;;;;;;;17.23;8.95;;;-6.80;87.70;;;;;;5057793;28;20026;-85
2020/12/24 00:24:59;;;;;;;18.73;8.27;;;-6.80;87.70;;;;;;5063817;28;20021;-86
2020/12/24 00:27:25;;;;;;;18.75;10.07;;;-6.70;87.80;;;;;;5067829;28;20029;-87
2020/12/24 00:29:51;;;;;;;18.27;8.65;;;-6.70;87.50;;;;;;5067157;28;20017;-86
2020/12/24 00:32:18;;;;;;;19.17;9.95;;;-6.60;88.00;;;;;;5050724;28;20029;-85
2020/12/24 00:34:44;;;;;;;14.50;8.13;;;-6.60;88.00;;;;;;5041594;28;20022;-86
2020/12/24 00:37:10;;;;;;;11.15;6.53;;;-6.50;87.80;;;;;;5053161;28;20282;-85
2020/12/24 00:39:36;;;;;;;12.40;5.85;;;-6.50;87.50;;;;;;5056326;28;20107;-85
2020/12/24 00:42:02;;;;;;;22.73;11.10;;;-6.60;87.40;;;;;;5056026;28;20076;-87
2020/12/24 00:44:27;;;;;;;17.65;10.80;;;-6.60;87.50;;;;;;5056666;28;20017;-88
2020/12/24 00:46:55;;;;;;;21.35;9.05;;;-6.70;87.80;;;;;;5043809;28;20026;-87
2020/12/24 00:49:21;;;;;;;20.63;10.77;;;-6.60;88.40;;;;;;5048415;28;20013;-87
2020/12/24 00:51:47;;;;;;;20.40;9.05;;;-6.60;88.80;;;;;;5034332;28;20025;-88
2020/12/24 00:54:12;;;;;;;20.42;9.65;;;-6.70;88.80;;;;;;5040069;28;20022;-87
2020/12/24 00:56:39;;;;;;;14.20;8.50;;;-6.70;89.10;;;;;;5046408;28;20413;-88
2020/12/24 00:59:05;;;;;;;18.92;9.57;;;-6.70;89.00;;;;;;5039145;28;20069;-86
2020/12/24 01:01:31;;;;;;;26.35;11.95;;;-6.70;89.20;;;;;;5042748;28;20024;-87
2020/12/24 01:03:56;;;;;;;19.00;9.93;;;-6.70;89.80;;;;;;5037598;28;20048;-85
2020/12/24 01:06:22;;;;;;;21.88;11.20;;;-6.60;90.00;;;;;;5039213;28;20026;-87
2020/12/24 01:08:48;;;;;;;15.82;8.10;;;-6.60;90.10;;;;;;5025285;28;20033;-87
2020/12/24 01:11:14;;;;;;;14.75;7.35;;;-6.60;90.00;;;;;;5036904;28;20083;-85
2020/12/24 01:13:40;;;;;;;14.07;7.85;;;-6.60;89.80;;;;;;5040042;28;20478;-86
2020/12/24 01:16:07;;;;;;;13.00;8.25;;;-6.70;89.60;;;;;;5037273;28;20089;-86
2020/12/24 01:18:33;;;;;;;15.65;9.40;;;-6.80;89.30;;;;;;5003882;28;20038;-87
2020/12/24 01:20:59;;;;;;;19.35;9.63;;;-6.70;89.80;;;;;;5027686;28;20052;-86
2020/12/24 01:23:25;;;;;;;15.10;7.72;;;-6.80;90.00;;;;;;5029411;28;20022;-87
2020/12/24 01:25:50;;;;;;;18.60;10.18;;;-6.80;90.00;;;;;;5018637;28;20019;-85
2020/12/24 01:28:16;;;;;;;17.33;8.77;;;-6.70;90.10;;;;;;5027328;28;20072;-86
2020/12/24 01:30:43;;;;;;;13.20;6.43;;;-6.70;90.20;;;;;;5035135;28;20034;-85
2020/12/24 01:33:09;;;;;;;20.90;9.95;;;-6.60;90.10;;;;;;5022133;28;20097;-88
2020/12/24 01:35:35;;;;;;;13.73;7.38;;;-6.70;89.30;;;;;;5044954;28;20049;-85
2020/12/24 01:38:00;;;;;;;11.88;7.10;;;-6.70;89.50;;;;;;5043527;28;20034;-85
2020/12/24 01:40:26;;;;;;;17.70;11.23;;;-6.70;89.80;;;;;;5040242;28;20025;-85
2020/12/24 01:42:52;;;;;;;45.65;11.32;;;-6.60;89.40;;;;;;5046094;28;20028;-87
2020/12/24 01:45:18;;;;;;;17.55;10.07;;;-6.60;89.90;;;;;;5034036;28;20027;-85
2020/12/24 01:47:44;;;;;;;11.95;6.60;;;-6.40;90.00;;;;;;5039623;28;20100;-85
2020/12/24 01:50:09;;;;;;;13.57;8.80;;;-6.40;89.10;;;;;;5027045;28;20032;-87
2020/12/24 01:52:37;;;;;;;16.20;9.65;;;-6.50;88.00;;;;;;5043944;28;20057;-88
2020/12/24 01:55:07;;;;;;;17.75;10.07;;;-6.50;88.20;;;;;;5026240;28;20034;-90
2020/12/24 01:57:36;;;;;;;14.10;6.70;;;-6.50;88.10;;;;;;5018415;28;20026;-88
2020/12/24 02:00:07;;;;;;;17.80;9.30;;;-6.60;87.80;;;;;;5031062;28;20055;-88
2020/12/24 02:02:33;;;;;;;16.10;8.52;;;-6.60;88.00;;;;;;5033961;28;20037;-89
2020/12/24 02:04:59;;;;;;;17.48;9.23;;;-6.60;88.00;;;;;;5033124;28;20470;-87
2020/12/24 02:07:25;;;;;;;17.30;9.77;;;-6.70;88.40;;;;;;5037764;28;20030;-87
2020/12/24 02:09:51;;;;;;;15.88;8.80;;;-6.70;88.90;;;;;;5016385;28;20040;-87
2020/12/24 02:12:18;;;;;;;18.10;9.60;;;-6.70;89.10;;;;;;5011131;28;20023;-88
2020/12/24 02:14:44;;;;;;;20.90;10.30;;;-6.60;89.40;;;;;;5033777;28;20072;-88
2020/12/24 02:17:10;;;;;;;22.52;9.85;;;-6.60;89.60;;;;;;5039589;28;20042;-87
2020/12/24 02:19:36;;;;;;;16.73;8.57;;;-6.50;89.60;;;;;;5051488;28;20044;-87
2020/12/24 02:22:03;;;;;;;17.23;10.35;;;-6.40;89.40;;;;;;5017525;28;20029;-90
2020/12/24 02:24:29;;;;;;;20.85;11.23;;;-6.40;89.10;;;;;;5040958;28;20072;-90
2020/12/24 02:26:55;;;;;;;19.00;9.40;;;-6.40;89.20;;;;;;5007126;28;20033;-88
2020/12/24 02:29:22;;;;;;;12.57;6.95;;;-6.40;88.80;;;;;;5024222;28;20110;-86
2020/12/24 02:31:48;;;;;;;27.02;11.30;;;-6.40;88.70;;;;;;5040262;28;20029;-87
2020/12/24 02:34:15;;;;;;;19.17;11.65;;;-6.40;88.80;;;;;;5039151;28;20463;-89
2020/12/24 02:36:41;;;;;;;20.08;12.90;;;-6.30;89.10;;;;;;5034647;28;20037;-88
2020/12/24 02:39:07;;;;;;;20.65;11.65;;;-6.30;88.90;;;;;;5014846;28;20097;-86
2020/12/24 02:41:33;;;;;;;23.13;12.18;;;-6.30;89.00;;;;;;5038988;28;20060;-88
2020/12/24 02:43:59;;;;;;;15.25;8.57;;;-6.30;89.20;;;;;;5027984;28;20022;-85
2020/12/24 02:46:24;;;;;;;23.00;11.70;;;-6.40;88.70;;;;;;5043588;28;20045;-87
2020/12/24 02:48:50;;;;;;;17.88;13.43;;;-6.40;88.60;;;;;;5039894;28;20017;-85
2020/12/24 02:51:16;;;;;;;19.50;10.93;;;-6.40;88.90;;;;;;5016226;28;20029;-85
2020/12/24 02:53:42;;;;;;;23.35;13.65;;;-6.40;89.10;;;;;;5051249;28;20033;-86
2020/12/24 02:56:08;;;;;;;16.88;8.63;;;-6.30;89.20;;;;;;5051421;28;20022;-86
2020/12/24 02:58:33;;;;;;;18.77;11.48;;;-6.20;88.70;;;;;;5044215;28;20478;-85
2020/12/24 03:01:00;;;;;;;21.02;12.32;;;-6.30;87.50;;;;;;5031875;28;20022;-87
2020/12/24 03:03:26;;;;;;;10.93;7.37;;;-6.40;87.70;;;;;;5030142;28;20021;-87
2020/12/24 03:05:52;;;;;;;15.35;8.27;;;-6.30;87.80;;;;;;5022128;28;20397;-87
2020/12/24 03:08:19;;;;;;;13.43;7.53;;;-6.30;87.60;;;;;;5057465;28;20017;-82
2020/12/24 03:10:46;;;;;;;22.75;11.68;;;-6.40;87.50;;;;;;5062243;28;20523;-85
2020/12/24 03:13:12;;;;;;;19.65;12.00;;;-6.30;87.60;;;;;;5040597;28;20082;-86
2020/12/24 03:15:38;;;;;;;23.90;14.07;;;-6.30;88.00;;;;;;5058340;28;20096;-87
2020/12/24 03:18:04;;;;;;;19.73;12.30;;;-6.10;87.90;;;;;;5057665;28;20324;-87
2020/12/24 03:20:30;;;;;;;20.45;10.82;;;-6.10;87.70;;;;;;5062391;28;20466;-87
2020/12/24 03:22:56;;;;;;;12.95;7.47;;;-6.00;87.70;;;;;;5067497;28;20136;-85
2020/12/24 03:25:22;;;;;;;17.33;10.23;;;-6.00;87.20;;;;;;5046475;28;20045;-86
2020/12/24 03:27:48;;;;;;;20.60;10.88;;;-6.00;87.00;;;;;;5058767;28;20343;-87
2020/12/24 03:30:13;;;;;;;27.25;14.30;;;-6.10;85.70;;;;;;5062777;28;20018;-85
2020/12/24 03:32:39;;;;;;;22.00;12.13;;;-6.20;85.90;;;;;;5049461;28;20044;-90
2020/12/24 03:35:05;;;;;;;24.30;14.88;;;-6.20;85.90;;;;;;5043984;28;20029;-87
2020/12/24 03:37:31;;;;;;;16.67;10.95;;;-6.10;86.50;;;;;;5049412;28;20037;-87
2020/12/24 03:39:58;;;;;;;17.15;10.43;;;-6.10;85.70;;;;;;5022079;28;20021;-87
2020/12/24 03:42:24;;;;;;;22.70;13.10;;;-6.10;85.40;;;;;;5046922;28;20025;-86
2020/12/24 03:44:49;;;;;;;15.40;10.40;;;-6.10;86.00;;;;;;5020463;28;20022;-86
2020/12/24 03:47:15;;;;;;;25.17;12.68;;;-6.00;86.30;;;;;;5050212;28;20041;-85
2020/12/24 03:49:41;;;;;;;26.58;13.63;;;-6.00;85.50;;;;;;5037268;28;20051;-87
2020/12/24 03:52:07;;;;;;;27.02;13.95;;;-5.90;85.80;;;;;;5053419;28;20021;-87
2020/12/24 03:54:33;;;;;;;18.00;11.13;;;-5.90;85.60;;;;;;5061270;28;20029;-83
2020/12/24 03:56:59;;;;;;;9.70;6.68;;;-5.90;85.50;;;;;;5066009;28;20155;-85
2020/12/24 03:59:25;;;;;;;27.25;13.55;;;-5.80;85.10;;;;;;5059690;28;20029;-88
2020/12/24 04:01:51;;;;;;;25.92;12.60;;;-5.90;85.20;;;;;;5053185;28;20021;-87
2020/12/24 04:04:16;;;;;;;24.83;13.57;;;-5.80;85.00;;;;;;5008377;28;20052;-88
2020/12/24 04:06:42;;;;;;;14.55;9.57;;;-5.80;85.30;;;;;;5051695;28;20021;-88
2020/12/24 04:09:08;;;;;;;23.20;13.13;;;-5.70;85.30;;;;;;5064384;28;20017;-88
2020/12/24 04:11:34;;;;;;;23.00;13.60;;;-5.80;84.60;;;;;;5036806;28;20044;-90
2020/12/24 04:14:00;;;;;;;13.05;7.85;;;-5.80;84.60;;;;;;5047820;28;20032;-87
2020/12/24 04:16:26;;;;;;;22.50;12.93;;;-5.80;84.60;;;;;;5066616;28;20061;-88
2020/12/24 04:18:52;;;;;;;24.95;13.20;;;-5.90;84.70;;;;;;5059318;28;20069;-90
2020/12/24 04:21:19;;;;;;;29.92;13.43;;;-5.80;85.10;;;;;;5054572;28;20025;-90
2020/12/24 04:23:45;;;;;;;27.33;14.10;;;-5.70;85.30;;;;;;5050516;28;20030;-90
2020/12/24 04:26:21;;;;;;;21.75;12.10;;;-5.70;85.20;;;;;;5062181;28;20041;-89
2020/12/24 04:28:48;;;;;;;22.77;12.10;;;-5.70;84.70;;;;;;5048290;28;20017;-91
2020/12/24 04:31:14;;;;;;;22.60;12.00;;;-5.70;85.00;;;;;;5056428;28;20020;-89
2020/12/24 04:33:40;;;;;;;31.90;15.05;;;-5.80;84.60;;;;;;5046016;28;20036;-91
2020/12/24 04:36:06;;;;;;;21.95;15.45;;;-5.90;84.60;;;;;;5045586;28;20029;-89
2020/12/24 04:38:34;;;;;;;30.92;13.18;;;-5.90;85.10;;;;;;5034392;28;20046;-90
2020/12/24 04:41:00;;;;;;;23.25;13.57;;;-5.80;85.30;;;;;;5027843;28;20037;-89
2020/12/24 04:43:29;;;;;;;20.30;11.60;;;-5.80;85.50;;;;;;5044673;28;20040;-84
2020/12/24 04:46:00;;;;;;;23.90;13.43;;;-5.80;85.40;;;;;;5055493;28;20029;-87
2020/12/24 04:48:26;;;;;;;22.17;12.68;;;-5.70;85.50;;;;;;5048232;28;20358;-88
2020/12/24 04:50:54;;;;;;;23.27;12.52;;;-5.60;85.30;;;;;;5039482;28;20223;-88
2020/12/24 04:53:20;;;;;;;19.17;12.00;;;-5.70;84.80;;;;;;5040147;28;20092;-91
2020/12/24 04:55:48;;;;;;;20.55;9.73;;;-5.70;84.90;;;;;;5038150;28;20021;-92
2020/12/24 04:58:14;;;;;;;26.98;15.48;;;-5.80;84.80;;;;;;5021045;28;20034;-91
2020/12/24 05:00:40;;;;;;;24.08;12.40;;;-5.80;85.10;;;;;;5030957;28;20021;-89
2020/12/24 05:03:09;;;;;;;27.88;13.80;;;-5.80;85.30;;;;;;5054713;28;20136;-89
2020/12/24 05:05:37;;;;;;;24.90;13.85;;;-5.80;85.50;;;;;;5037772;28;20042;-91
2020/12/24 05:08:04;;;;;;;;;;;-5.70;86.00;;;;;;5037076;28;20017;-90
2020/12/24 05:10:31;;;;;;;22.00;13.95;;;-5.70;85.90;;;;;;5037232;28;19927;-89
2020/12/24 05:12:58;;;;;;;24.35;12.68;;;-5.70;86.00;;;;;;5054528;28;20033;-90
2020/12/24 05:15:30;;;;;;;22.13;12.10;;;-5.70;86.20;;;;;;5064627;28;20021;-91
2020/12/24 05:18:18;;;;;;;24.52;15.05;;;-5.70;86.00;;;;;;5047502;28;20038;-86
2020/12/24 05:20:47;;;;;;;24.40;14.70;;;-5.80;86.30;;;;;;5057605;28;20021;-88
2020/12/24 05:23:18;;;;;;;27.25;15.63;;;-5.80;86.60;;;;;;5064977;28;20049;-90
2020/12/24 05:25:49;;;;;;;13.63;8.63;;;-5.80;86.90;;;;;;5038219;28;20132;-91
2020/12/24 05:28:25;;;;;;;26.63;14.90;;;-5.70;87.10;;;;;;5023448;28;20029;-88
2020/12/24 05:31:00;;;;;;;19.20;9.95;;;-5.70;86.70;;;;;;5020248;28;20081;-87
2020/12/24 05:33:33;;;;;;;33.50;15.00;;;-5.80;86.40;;;;;;5034472;28;20025;-85
2020/12/24 05:36:21;;;;;;;16.90;8.93;;;-5.70;87.10;;;;;;5031871;28;20021;-86
2020/12/24 05:38:49;;;;;;;23.90;15.05;;;-5.70;86.90;;;;;;5058916;28;20037;-89
2020/12/24 05:41:45;;;;;;;17.40;11.13;;;-5.70;86.80;;;;;;5032079;28;20030;-89
2020/12/24 05:44:12;;;;;;;22.77;11.77;;;-5.70;86.90;;;;;;5035533;28;20095;-90
2020/12/24 05:46:48;;;;;;;30.23;14.10;;;-5.70;86.80;;;;;;5035352;28;20017;-90
2020/12/24 05:49:21;;;;;;;14.82;8.32;;;-5.80;87.00;;;;;;5036992;28;20033;-92
2020/12/24 05:51:54;;;;;;;18.75;10.38;;;-5.70;87.30;;;;;;5035264;28;20135;-89
2020/12/24 05:54:21;;;;;;;29.60;14.40;;;-5.80;86.80;;;;;;5020951;28;20024;-90
2020/12/24 05:56:47;;;;;;;28.98;14.48;;;-5.70;87.20;;;;;;5029314;28;20071;-92
2020/12/24 05:59:15;;;;;;;24.83;13.15;;;-5.70;87.20;;;;;;5019944;28;20182;-92
2020/12/24 06:01:48;;;;;;;26.55;14.02;;;-5.70;87.00;;;;;;5028418;28;20025;-90
2020/12/24 06:04:35;;;;;;;32.22;14.65;;;-5.70;87.00;;;;;;5031867;28;20091;-91
2020/12/24 06:07:06;;;;;;;;;;;-5.70;87.20;;;;;;5046175;28;20036;-89
2020/12/24 06:09:36;;;;;;;25.73;12.10;;;-5.60;87.30;;;;;;5037789;28;20370;-90
2020/12/24 06:12:18;;;;;;;28.73;15.35;;;-5.60;86.90;;;;;;5053091;28;20029;-89
2020/12/24 06:14:47;;;;;;;30.58;16.65;;;-5.70;87.20;;;;;;5039146;28;20512;-90
2020/12/24 06:17:14;;;;;;;16.50;9.88;;;-5.60;87.50;;;;;;5052245;28;20041;-90
2020/12/24 06:19:41;;;;;;;29.83;16.67;;;-5.50;87.20;;;;;;5072183;28;20083;-89
2020/12/24 06:22:08;;;;;;;29.02;12.65;;;-5.60;86.90;;;;;;5055010;28;20025;-89
2020/12/24 06:24:39;;;;;;;26.75;16.60;;;-5.60;87.60;;;;;;5064731;28;20093;-87
2020/12/24 06:27:10;;;;;;;23.40;12.35;;;-5.50;87.10;;;;;;5066306;28;20531;-89
2020/12/24 06:29:41;;;;;;;22.92;11.57;;;-5.40;87.30;;;;;;5061748;28;20021;-89
2020/12/24 06:32:11;;;;;;;22.20;10.65;;;-5.50;86.60;;;;;;5029139;28;20025;-87
2020/12/24 06:34:40;;;;;;;28.08;14.18;;;-5.50;86.50;;;;;;5034129;28;20491;-89
2020/12/24 06:37:20;;;;;;;27.40;14.38;;;-5.60;86.50;;;;;;5045244;28;20071;-88
2020/12/24 06:40:01;;;;;;;16.20;10.07;;;-5.50;87.10;;;;;;5052147;28;20048;-88
2020/12/24 06:42:46;;;;;;;31.95;16.63;;;-5.50;86.90;;;;;;5043000;28;20037;-89
2020/12/24 06:45:19;;;;;;;19.27;9.75;;;-5.40;87.20;;;;;;5024346;28;20025;-88
2020/12/24 06:48:04;;;;;;;25.17;14.35;;;-5.30;86.90;;;;;;5021825;28;20113;-88
2020/12/24 06:50:43;;;;;;;26.08;14.73;;;-5.40;86.60;;;;;;5056973;28;20021;-89
2020/12/24 06:53:34;;;;;;;29.75;15.32;;;-5.30;87.00;;;;;;5049480;28;20033;-89
2020/12/24 06:56:15;;;;;;;29.63;16.40;;;-5.20;86.70;;;;;;5037415;28;20029;-89
2020/12/24 06:59:01;;;;;;;26.15;13.02;;;-5.10;86.70;;;;;;5059038;28;20095;-89
2020/12/24 07:01:35;;;;;;;28.48;14.40;;;-5.10;86.70;;;;;;5045984;28;20017;-92
2020/12/24 07:04:04;;;;;;;36.03;18.80;;;-5.20;85.90;;;;;;5026685;28;20092;-90
2020/12/24 07:06:42;;;;;;;32.83;16.70;;;-5.10;86.40;;;;;;5033290;28;20036;-84
2020/12/24 07:09:21;;;;;;;38.00;17.83;;;-5.00;86.50;;;;;;5056230;28;20021;-87
2020/12/24 07:11:49;;;;;;;27.42;15.25;;;-4.80;87.10;;;;;;5040369;28;20025;-88
2020/12/24 07:14:27;;;;;;;22.05;12.05;;;-4.80;86.10;;;;;;5042480;28;20028;-87
2020/12/24 07:16:55;;;;;;;34.75;18.33;;;-4.70;85.70;;;;;;5025296;28;20482;-90
2020/12/24 07:19:21;;;;;;;;;;;-4.80;85.30;;;;;;5037064;28;20059;-93
2020/12/24 07:21:49;;;;;;;36.72;17.23;;;-4.80;85.70;;;;;;5025228;28;19905;-91
2020/12/24 07:24:25;;;;;;;29.15;15.82;;;-4.70;85.90;;;;;;5051593;28;20037;-89
2020/12/24 07:26:59;;;;;;;27.45;16.52;;;-4.60;85.50;;;;;;5041286;28;20022;-88
2020/12/24 07:29:26;;;;;;;32.90;16.85;;;-4.60;84.90;;;;;;5034570;28;20032;-88
2020/12/24 07:31:54;;;;;;;29.60;17.92;;;-4.60;85.20;;;;;;5048816;28;20040;-89
2020/12/24 07:34:29;;;;;;;33.22;17.55;;;-4.50;85.10;;;;;;5037482;28;20025;-87
2020/12/24 07:36:55;;;;;;;34.85;19.67;;;-4.40;85.70;;;;;;5032920;28;20021;-85
2020/12/24 07:39:22;;;;;;;35.17;18.60;;;-4.30;84.80;;;;;;5046592;28;20040;-89
2020/12/24 07:41:48;;;;;;;30.90;19.15;;;-4.30;84.50;;;;;;5024706;28;20117;-88
2020/12/24 07:44:16;;;;;;;28.45;16.60;;;-4.20;84.60;;;;;;5022607;28;20025;-90
2020/12/24 07:46:43;;;;;;;34.67;17.55;;;-4.10;84.40;;;;;;5021398;28;20029;-90
2020/12/24 07:49:10;;;;;;;30.93;17.37;;;-4.00;84.30;;;;;;5039611;28;20344;-88
2020/12/24 07:51:36;;;;;;;33.08;17.77;;;-4.00;83.90;;;;;;5021216;28;20692;-87
2020/12/24 07:54:05;;;;;;;28.90;16.73;;;-4.00;83.90;;;;;;5021238;28;20041;-89
2020/12/24 07:56:34;;;;;;;35.40;17.90;;;-4.10;83.60;;;;;;5039135;28;20032;-89
2020/12/24 07:59:03;;;;;;;29.70;19.63;;;-4.00;83.90;;;;;;5041518;28;20041;-91
2020/12/24 08:01:31;;;;;;;40.20;23.15;;;-3.90;83.90;;;;;;5021319;28;20099;-89
2020/12/24 08:04:01;;;;;;;34.30;19.60;;;-3.90;83.70;;;;;;5040590;28;20494;-92
2020/12/24 08:06:28;;;;;;;32.22;17.25;;;-3.90;83.50;;;;;;5031227;28;20025;-89
2020/12/24 08:09:13;;;;;;;32.05;16.27;;;-3.90;82.80;;;;;;5022420;28;20036;-90
2020/12/24 08:11:40;;;;;;;30.38;18.17;;;-4.10;83.00;;;;;;5045041;28;20434;-90
2020/12/24 08:14:07;;;;;;;28.52;16.38;;;-4.10;83.70;;;;;;5014245;28;20371;-88
2020/12/24 08:16:36;;;;;;;36.53;18.42;;;-4.20;83.60;;;;;;5026368;28;20389;-89
2020/12/24 08:19:12;;;;;;;28.48;16.33;;;-4.10;83.80;;;;;;5030953;28;20034;-88
2020/12/24 08:21:55;;;;;;;30.17;17.02;;;-4.10;83.90;;;;;;5002636;28;20046;-89
2020/12/24 08:24:23;;;;;;;32.22;15.90;;;-4.20;83.80;;;;;;5023041;28;20045;-85
2020/12/24 08:26:50;;;;;;;37.55;18.65;;;-4.20;83.70;;;;;;5038441;28;20017;-87
2020/12/24 08:29:16;;;;;;;33.45;18.05;;;-4.10;84.20;;;;;;5029068;28;20024;-90
2020/12/24 08:31:45;;;;;;;33.42;17.38;;;-3.90;84.10;;;;;;5035799;28;20037;-87
2020/12/24 08:34:12;;;;;;;31.38;17.33;;;-3.90;83.60;;;;;;5005963;28;20165;-89
2020/12/24 08:36:56;;;;;;;40.20;20.10;;;-4.00;83.20;;;;;;4999487;28;20585;-90
2020/12/24 08:39:22;;;;;;;27.10;11.57;;;-4.00;84.00;;;;;;5000079;28;20132;-89
2020/12/24 08:41:57;;;;;;;42.08;19.30;;;-3.90;83.80;;;;;;5021553;28;20033;-88
2020/12/24 08:44:25;;;;;;;39.25;18.20;;;-4.00;83.80;;;;;;5020895;28;20052;-90
2020/12/24 08:47:08;;;;;;;28.80;13.95;;;-4.00;84.10;;;;;;5000546;28;20026;-90
2020/12/24 08:49:41;;;;;;;25.55;14.70;;;-4.00;84.60;;;;;;5006170;28;20038;-90
2020/12/24 08:52:08;;;;;;;33.63;15.18;;;-4.10;83.90;;;;;;5015601;28;20018;-90
2020/12/24 08:54:34;;;;;;;30.58;15.27;;;-4.20;84.10;;;;;;4998575;28;20040;-89
2020/12/24 08:57:02;;;;;;;30.77;15.82;;;-4.20;84.40;;;;;;5014830;28;20084;-90
2020/12/24 08:59:27;;;;;;;26.65;14.43;;;-4.20;84.70;;;;;;5006867;28;20041;-88
2020/12/24 09:01:53;;;;;;;38.08;18.58;;;-4.20;84.90;;;;;;4981214;28;20133;-92
2020/12/24 09:04:19;;;;;;;30.58;14.48;;;-4.20;85.00;;;;;;5023475;28;20080;-89
2020/12/24 09:06:45;;;;;;;39.85;19.63;;;-4.10;85.20;;;;;;5016939;28;20098;-90
2020/12/24 09:09:26;;;;;;;31.83;15.48;;;-4.10;85.00;;;;;;5022544;28;20113;-91
2020/12/24 09:11:54;;;;;;;35.28;17.98;;;-4.10;84.80;;;;;;5028522;28;20013;-88
2020/12/24 09:14:22;;;;;;;33.83;17.52;;;-4.00;84.90;;;;;;5024830;28;20017;-90
2020/12/24 09:16:56;;;;;;;40.58;18.30;;;-3.90;85.10;;;;;;5005857;28;20032;-90
2020/12/24 09:19:23;;;;;;;32.47;17.60;;;-3.90;85.00;;;;;;5019194;28;20056;-90
2020/12/24 09:21:54;;;;;;;33.22;19.52;;;-3.80;84.80;;;;;;5037592;28;20032;-89
2020/12/24 09:24:21;;;;;;;35.15;18.75;;;-3.80;84.80;;;;;;5037220;28;20023;-91
2020/12/24 09:26:50;;;;;;;35.53;18.75;;;-3.70;84.70;;;;;;5023987;28;20029;-90
2020/12/24 09:29:17;;;;;;;40.35;21.05;;;-3.70;84.50;;;;;;5060463;28;20017;-89
2020/12/24 09:31:52;;;;;;;34.78;16.90;;;-3.60;84.40;;;;;;5053573;28;20020;-88
2020/12/24 09:34:18;;;;;;;32.00;18.48;;;-3.40;84.30;;;;;;5039462;28;20097;-88
2020/12/24 09:36:47;;;;;;;35.65;19.02;;;-3.40;83.80;;;;;;5043420;28;20037;-91
2020/12/24 09:39:12;;;;;;;29.70;16.88;;;-3.40;83.80;;;;;;5051442;28;20482;-88
2020/12/24 09:41:46;;;;;;;29.38;16.65;;;-3.40;83.80;;;;;;5041688;28;20092;-89
2020/12/24 09:44:12;;;;;;;32.53;19.15;;;-3.40;83.30;;;;;;5056688;28;20025;-89
2020/12/24 09:46:39;;;;;;;33.92;19.77;;;-3.40;83.50;;;;;;5043951;28;20490;-89
2020/12/24 09:49:05;;;;;;;33.42;16.70;;;-3.30;83.70;;;;;;5020516;28;20022;-90
2020/12/24 09:51:38;;;;;;;36.20;20.10;;;-3.30;83.50;;;;;;5039574;28;20117;-90
2020/12/24 09:54:07;;;;;;;23.50;12.10;;;-3.30;83.50;;;;;;5064581;28;20024;-88
2020/12/24 09:56:33;;;;;;;33.78;20.23;;;-3.40;83.00;;;;;;5036556;28;20097;-90
2020/12/24 09:59:00;;;;;;;36.05;20.00;;;-3.40;83.50;;;;;;5060956;28;20076;-89
2020/12/24 10:01:26;;;;;;;35.40;17.10;;;-3.30;83.50;;;;;;5044657;28;20028;-90
2020/12/24 10:03:51;;;;;;;35.88;22.02;;;-3.30;83.40;;;;;;5046547;28;20030;-87
2020/12/24 10:06:17;;;;;;;28.73;16.05;;;-3.20;83.40;;;;;;5027590;28;20077;-89
2020/12/24 10:08:43;;;;;;;29.27;15.85;;;-3.20;83.10;;;;;;5056423;28;20025;-89
2020/12/24 10:11:13;;;;;;;35.30;21.25;;;-3.20;83.20;;;;;;5043086;28;20097;-90
2020/12/24 10:13:40;;;;;;;33.85;18.05;;;-3.20;83.20;;;;;;5045631;28;20092;-89
2020/12/24 10:16:06;;;;;;;35.78;20.13;;;-3.20;83.20;;;;;;5043980;28;20032;-88
2020/12/24 10:18:32;;;;;;;40.88;19.73;;;-3.10;83.40;;;;;;5037157;28;20474;-89
2020/12/24 10:20:58;;;;;;;35.97;21.15;;;-3.00;83.40;;;;;;5033821;28;20135;-89
2020/12/24 10:23:26;;;;;;;36.83;18.95;;;-2.90;83.20;;;;;;5063958;28;20442;-89
2020/12/24 10:25:52;;;;;;;32.97;19.15;;;-2.90;82.50;;;;;;5073843;28;20021;-88
2020/12/24 10:28:18;;;;;;;35.50;19.35;;;-3.10;82.60;;;;;;5060787;28;20034;-85
2020/12/24 10:30:44;;;;;;;33.30;17.48;;;-3.10;83.00;;;;;;5048326;28;20025;-88
2020/12/24 10:33:10;;;;;;;29.90;18.08;;;-3.20;82.90;;;;;;5045877;28;20013;-90
2020/12/24 10:35:36;;;;;;;35.47;17.15;;;-3.10;83.10;;;;;;5036023;28;20024;-90
2020/12/24 10:38:05;;;;;;;35.83;20.30;;;-3.20;83.20;;;;;;5011928;28;20042;-91
2020/12/24 10:40:31;;;;;;;31.05;18.50;;;-3.10;83.50;;;;;;5060641;28;20017;-92
2020/12/24 10:42:59;;;;;;;30.13;15.52;;;-3.20;82.90;;;;;;5055382;28;20028;-88
2020/12/24 10:45:27;;;;;;;32.20;16.73;;;-3.20;83.30;;;;;;5037536;28;20045;-89
2020/12/24 10:47:53;;;;;;;40.50;20.90;;;-3.30;83.30;;;;;;5038814;28;20465;-89
2020/12/24 10:50:19;;;;;;;27.25;15.20;;;-3.30;83.90;;;;;;5073283;28;20028;-89
2020/12/24 10:52:46;;;;;;;27.57;15.63;;;-3.20;84.00;;;;;;5040860;28;20382;-91
2020/12/24 10:55:12;;;;;;;31.52;18.50;;;-3.20;83.70;;;;;;5023314;28;20373;-89
2020/12/24 10:57:38;;;;;;;34.88;18.63;;;-3.20;84.10;;;;;;5022937;28;20029;-92
2020/12/24 11:00:07;;;;;;;35.58;18.73;;;-3.10;84.20;;;;;;5040554;28;20051;-92
2020/12/24 11:02:34;;;;;;;24.77;13.00;;;-3.00;83.80;;;;;;5015832;28;20021;-90
2020/12/24 11:05:00;;;;;;;28.50;16.30;;;-2.90;83.50;;;;;;5050141;28;20070;-89
2020/12/24 11:07:26;;;;;;;36.47;21.27;;;-3.00;83.30;;;;;;5007718;28;20044;-90
2020/12/24 11:09:52;;;;;;;39.05;21.73;;;-3.00;83.70;;;;;;5036125;28;20025;-91
2020/12/24 11:12:18;;;;;;;38.95;21.48;;;-2.90;84.00;;;;;;5035363;28;20043;-89
2020/12/24 11:14:44;;;;;;;35.45;22.90;;;-2.80;83.80;;;;;;5040837;28;20083;-90
2020/12/24 11:17:09;;;;;;;33.05;18.20;;;-2.70;83.40;;;;;;4999739;28;20120;-89
2020/12/24 11:19:35;;;;;;;35.50;21.00;;;-2.80;83.20;;;;;;5049706;28;20030;-92
2020/12/24 11:22:01;;;;;;;42.10;22.20;;;-2.80;83.20;;;;;;5066959;28;20029;-90
2020/12/24 11:24:27;;;;;;;31.70;19.95;;;-2.70;83.50;;;;;;5048219;28;20025;-89
2020/12/24 11:26:52;;;;;;;31.83;17.60;;;-2.60;83.30;;;;;;5072878;28;20025;-89
2020/12/24 11:29:18;;;;;;;29.17;18.77;;;-2.60;82.80;;;;;;5050464;28;20025;-90
2020/12/24 11:31:47;;;;;;;36.40;19.75;;;-2.70;82.80;;;;;;5039466;28;20025;-90
2020/12/24 11:34:13;;;;;;;35.72;19.55;;;-2.60;83.20;;;;;;5032079;28;20084;-90
2020/12/24 11:36:44;;;;;;;42.00;22.08;;;-2.60;83.30;;;;;;5045237;28;20494;-92
2020/12/24 11:39:09;;;;;;;31.08;17.75;;;-2.60;83.50;;;;;;5040652;28;20059;-92
2020/12/24 11:41:35;;;;;;;27.35;14.68;;;-2.50;83.90;;;;;;5057983;28;20481;-90
2020/12/24 11:44:02;;;;;;;33.10;17.80;;;-2.60;83.20;;;;;;5040347;28;20029;-89
2020/12/24 11:46:28;;;;;;;37.83;20.17;;;-2.70;83.60;;;;;;5027255;28;20124;-89
2020/12/24 11:48:55;;;;;;;27.30;15.93;;;-2.80;84.10;;;;;;5047580;28;20030;-90
2020/12/24 11:51:24;;;;;;;;;;;-2.80;84.40;;;;;;5030843;28;20033;-88
2020/12/24 11:53:50;;;;;;;35.42;20.77;;;-2.90;84.20;;;;;;5063181;28;19915;-90
2020/12/24 11:56:18;;;;;;;37.70;22.30;;;-3.00;84.90;;;;;;5039716;28;20026;-90
2020/12/24 11:58:46;;;;;;;40.03;20.58;;;-2.90;85.40;;;;;;5046726;28;20143;-91
2020/12/24 12:01:18;;;;;;;22.02;13.15;;;-2.80;85.40;;;;;;5046312;28;20477;-88
2020/12/24 12:03:45;;;;;;;37.60;17.98;;;-2.70;85.00;;;;;;5044515;28;20036;-90
2020/12/24 12:06:11;;;;;;;32.73;16.97;;;-2.90;84.40;;;;;;5049655;28;20021;-89
2020/12/24 12:08:38;;;;;;;40.00;18.63;;;-3.00;84.70;;;;;;5044321;28;20247;-90
2020/12/24 12:11:06;;;;;;;36.97;18.67;;;-2.90;85.00;;;;;;5051602;28;20028;-87
2020/12/24 12:13:32;;;;;;;36.45;21.05;;;-2.90;85.00;;;;;;5057236;28;20033;-89
2020/12/24 12:15:58;;;;;;;40.53;23.38;;;-2.90;85.10;;;;;;5043927;28;20072;-89
2020/12/24 12:18:24;;;;;;;37.10;20.08;;;-2.80;85.30;;;;;;5036546;28;20029;-90
2020/12/24 12:20:50;;;;;;;37.50;19.10;;;-2.70;85.30;;;;;;5039007;28;20018;-88
2020/12/24 12:23:16;;;;;;;41.40;23.58;;;-2.70;84.50;;;;;;5055025;28;20021;-89
2020/12/24 12:25:42;;;;;;;44.95;23.65;;;-2.80;84.70;;;;;;5041217;28;20075;-88
2020/12/24 12:28:08;;;;;;;40.72;23.73;;;-2.70;85.00;;;;;;5043605;28;20620;-86
2020/12/24 12:30:41;;;;;;;38.15;19.20;;;-2.60;84.60;;;;;;5065452;28;20045;-91
2020/12/24 12:33:09;;;;;;;40.65;22.40;;;-2.70;84.20;;;;;;5053753;28;20100;-88
2020/12/24 12:35:35;;;;;;;47.08;22.08;;;-2.80;84.40;;;;;;5026946;28;20025;-90